createdAt,value
2018-04-13T00:09:21.865Z,12.16
2018-04-13T00:19:19.949Z,12.33
2018-04-13T00:29:16.308Z,12.48
2018-04-13T00:39:12.482Z,12.42
2018-04-13T00:49:10.734Z,12.51
2018-04-13T00:59:07.241Z,12.42
2018-04-13T01:09:01.758Z,12.33
2018-04-13T01:18:57.958Z,12.31
2018-04-13T01:28:53.689Z,12.18
2018-04-13T01:38:47.490Z,12.26
2018-04-13T01:48:46.140Z,12.27
2018-04-13T01:58:43.638Z,12.24
2018-04-13T02:08:39.969Z,12.30
2018-04-13T02:18:38.326Z,12.11
2018-04-13T02:28:35.027Z,12.08
2018-04-13T02:38:30.427Z,12.00
2018-04-13T02:48:28.524Z,11.79
2018-04-13T02:58:25.010Z,11.81
2018-04-13T03:08:19.489Z,11.87
2018-04-13T03:18:17.504Z,11.72
2018-04-13T03:28:14.747Z,11.68
2018-04-13T03:38:09.109Z,11.75
2018-04-13T03:48:07.119Z,11.78
2018-04-13T03:58:02.717Z,12.00
2018-04-13T04:07:57.540Z,11.98
2018-04-13T04:17:55.792Z,12.02
2018-04-13T04:27:54.249Z,12.09
2018-04-13T04:37:50.921Z,12.11
2018-04-13T04:47:45.009Z,11.95
2018-04-13T04:57:42.369Z,11.86
2018-04-13T05:07:39.880Z,12.02
2018-04-13T05:17:38.031Z,12.16
2018-04-13T05:27:32.601Z,12.13
2018-04-13T05:37:30.320Z,12.16
2018-04-13T05:47:28.024Z,12.30
2018-04-13T05:57:22.609Z,12.66
2018-04-13T06:07:19.295Z,12.92
2018-04-13T06:17:15.584Z,12.61
2018-04-13T06:27:11.467Z,12.84
2018-04-13T06:37:08.950Z,12.99
2018-04-13T06:47:06.844Z,12.97
2018-04-13T06:57:04.722Z,13.02
2018-04-13T07:07:01.775Z,13.65
2018-04-13T07:16:56.584Z,13.37
2018-04-13T07:26:54.590Z,13.61
2018-04-13T07:36:50.964Z,13.83
2018-04-13T07:46:47.053Z,14.11
2018-04-13T07:56:45.406Z,14.49
2018-04-13T08:06:42.186Z,14.80
2018-04-13T08:16:39.314Z,15.21
2018-04-13T08:26:37.228Z,15.26
2018-04-13T08:36:34.284Z,15.94
2018-04-13T08:46:30.474Z,16.48
2018-04-13T08:56:27.450Z,15.88
2018-04-13T09:06:25.226Z,17.18
2018-04-13T09:16:20.409Z,17.10
2018-04-13T09:26:18.975Z,17.13
2018-04-13T09:35:53.481Z,17.05
2018-04-13T09:45:53.328Z,17.70
2018-04-13T09:55:31.979Z,17.92
2018-04-13T10:05:09.568Z,18.58
2018-04-13T10:14:47.344Z,18.68
2018-04-13T10:24:24.047Z,18.64
2018-04-13T10:34:01.048Z,19.36
2018-04-13T10:43:38.514Z,18.49
2018-04-13T10:53:15.946Z,18.92
2018-04-13T11:02:52.144Z,19.54
2018-04-13T11:12:30.011Z,19.80
2018-04-13T11:22:06.983Z,20.16
2018-04-13T11:31:44.470Z,20.76
2018-04-13T11:41:22.815Z,21.91
2018-04-13T11:51:00.837Z,22.26
2018-04-13T12:00:40.654Z,21.89
2018-04-13T12:10:09.642Z,23.15
2018-04-13T12:19:47.483Z,22.83
2018-04-13T12:29:26.074Z,22.97
2018-04-13T12:39:04.127Z,22.28
2018-04-13T12:48:40.197Z,20.72
2018-04-13T12:58:18.282Z,23.60
2018-04-13T13:07:58.201Z,23.80
2018-04-13T13:17:35.950Z,24.60
2018-04-13T13:27:14.371Z,23.74
2018-04-13T13:36:52.971Z,25.25
2018-04-13T13:46:33.077Z,25.32
2018-04-13T13:56:12.039Z,25.34
2018-04-13T14:05:44.696Z,22.63
2018-04-13T14:15:18.428Z,23.29
2018-04-13T14:24:52.800Z,20.05
2018-04-13T14:34:31.142Z,23.14
2018-04-13T14:44:10.998Z,21.41
2018-04-13T14:53:48.697Z,23.61
2018-04-13T15:03:34.626Z,23.98
2018-04-13T15:13:07.526Z,23.23
2018-04-13T15:22:43.615Z,23.53
2018-04-13T15:32:22.528Z,22.86
2018-04-13T15:42:01.318Z,22.92
2018-04-13T15:51:37.576Z,23.18
2018-04-13T16:01:02.216Z,20.64
2018-04-13T16:10:33.397Z,19.80
2018-04-13T16:20:06.896Z,19.21
2018-04-13T16:29:42.838Z,18.73
2018-04-13T16:39:18.825Z,18.55
2018-04-13T16:48:55.011Z,18.25
2018-04-13T16:58:31.035Z,17.74
2018-04-13T17:08:07.265Z,17.40
2018-04-13T17:17:43.664Z,17.25
2018-04-13T17:27:19.971Z,16.90
2018-04-13T17:36:56.303Z,16.80
2018-04-13T17:46:32.287Z,16.25
2018-04-13T17:56:08.645Z,16.16
2018-04-13T18:05:44.943Z,15.63
2018-04-13T18:15:21.216Z,15.13
2018-04-13T18:24:56.138Z,14.49
2018-04-13T18:34:31.843Z,15.09
2018-04-13T18:44:08.949Z,15.18
2018-04-13T18:53:45.859Z,14.69
2018-04-13T19:03:22.164Z,13.73
2018-04-13T19:12:56.671Z,13.17
2018-04-13T19:22:31.322Z,13.50
2018-04-13T19:32:09.788Z,13.19
2018-04-13T19:41:44.291Z,12.81
2018-04-13T19:51:39.380Z,11.87
2018-04-13T20:01:36.079Z,11.57
2018-04-13T20:11:32.668Z,11.35
2018-04-13T20:21:26.259Z,11.05
2018-04-13T20:31:12.209Z,10.73
2018-04-13T20:41:08.714Z,10.37
2018-04-13T20:51:03.433Z,10.36
2018-04-13T21:00:58.901Z,10.03
2018-04-13T21:10:55.758Z,9.82
2018-04-13T21:20:52.331Z,9.60
2018-04-13T21:30:49.300Z,9.16
2018-04-13T21:40:42.823Z,8.88
2018-04-13T21:50:39.333Z,8.75
2018-04-13T22:00:35.467Z,8.58
2018-04-13T22:10:30.946Z,8.37
2018-04-13T22:20:24.849Z,8.29
2018-04-13T22:30:21.902Z,8.12
2018-04-13T22:40:17.819Z,7.91
2018-04-13T22:50:13.641Z,7.99
2018-04-13T23:00:11.524Z,8.34
2018-04-13T23:10:06.937Z,8.44
2018-04-13T23:20:04.673Z,8.04
2018-04-13T23:30:01.102Z,8.66
2018-04-13T23:39:55.598Z,8.07
2018-04-13T23:49:53.044Z,7.88
2018-04-13T23:59:49.645Z,7.56
